createdAt,value
2023-02-22T00:00:08.194Z,99.99
2023-02-22T00:00:48.023Z,99.99
2023-02-22T00:01:48.296Z,99.99
2023-02-22T00:02:47.479Z,99.99
2023-02-22T00:03:47.460Z,99.99
2023-02-22T00:04:46.834Z,99.99
2023-02-22T00:05:48.543Z,99.99
2023-02-22T00:06:47.001Z,99.99
2023-02-22T00:07:46.733Z,99.99
2023-02-22T00:08:47.992Z,99.99
2023-02-22T00:10:08.759Z,99.99
2023-02-22T00:10:47.097Z,99.99
2023-02-22T00:11:46.913Z,99.99
2023-02-22T00:12:46.900Z,99.99
2023-02-22T00:13:47.924Z,99.99
2023-02-22T00:14:47.775Z,99.99
2023-02-22T00:15:47.173Z,99.99
2023-02-22T00:16:48.364Z,99.99
2023-02-22T00:17:46.750Z,99.99
2023-02-22T00:18:47.116Z,99.99
2023-02-22T00:20:07.877Z,99.99
2023-02-22T00:20:46.695Z,99.99
2023-02-22T00:21:47.471Z,99.99
2023-02-22T00:22:46.859Z,99.99
2023-02-22T00:23:46.733Z,99.99
2023-02-22T00:24:47.593Z,99.99
2023-02-22T00:25:46.727Z,99.99
2023-02-22T00:26:48.481Z,99.99
2023-02-22T00:27:47.486Z,99.99
2023-02-22T00:28:48.039Z,99.99
2023-02-22T00:30:07.901Z,99.99
2023-02-22T00:30:46.725Z,99.99
2023-02-22T00:31:48.469Z,99.99
2023-02-22T00:32:46.768Z,99.99
2023-02-22T00:33:47.637Z,99.99
2023-02-22T00:34:47.596Z,99.99
2023-02-22T00:35:46.770Z,99.99
2023-02-22T00:36:46.684Z,99.99
2023-02-22T00:37:48.263Z,99.99
2023-02-22T00:38:46.658Z,99.99
2023-02-22T00:40:06.409Z,99.99
2023-02-22T00:40:48.109Z,99.99
2023-02-22T00:41:46.780Z,99.99
2023-02-22T00:42:48.224Z,99.99
2023-02-22T00:43:47.978Z,99.99
2023-02-22T00:44:47.490Z,99.99
2023-02-22T00:45:48.105Z,99.99
2023-02-22T00:46:47.858Z,99.99
2023-02-22T00:47:46.869Z,99.99
2023-02-22T00:48:47.595Z,99.99
2023-02-22T00:50:07.827Z,99.99
2023-02-22T00:50:46.745Z,99.99
2023-02-22T00:51:46.739Z,99.99
2023-02-22T00:52:46.391Z,99.99
2023-02-22T00:53:46.783Z,99.99
2023-02-22T00:54:46.559Z,99.99
2023-02-22T00:55:46.983Z,99.99
2023-02-22T00:56:48.036Z,99.99
2023-02-22T00:57:47.802Z,99.99
2023-02-22T00:58:48.112Z,99.99
2023-02-22T01:00:07.414Z,99.99
2023-02-22T01:00:46.230Z,99.99
2023-02-22T01:01:46.590Z,99.99
2023-02-22T01:02:46.373Z,99.99
2023-02-22T01:03:46.752Z,99.99
2023-02-22T01:04:46.545Z,99.99
2023-02-22T01:05:46.307Z,99.99
2023-02-22T01:06:46.993Z,99.99
2023-02-22T01:07:46.442Z,99.99
2023-02-22T01:08:47.660Z,99.99
2023-02-22T01:10:08.405Z,99.99
2023-02-22T01:10:46.354Z,99.99
2023-02-22T01:11:46.614Z,99.99
2023-02-22T01:12:47.000Z,99.99
2023-02-22T01:13:46.195Z,99.99
2023-02-22T01:14:46.604Z,99.99
2023-02-22T01:15:46.286Z,99.99
2023-02-22T01:16:47.541Z,99.99
2023-02-22T01:17:46.985Z,99.99
2023-02-22T01:18:47.022Z,99.99
2023-02-22T01:20:07.440Z,99.99
2023-02-22T01:20:45.494Z,99.99
2023-02-22T01:21:46.305Z,99.99
2023-02-22T01:22:46.077Z,99.99
2023-02-22T01:23:47.020Z,99.99
2023-02-22T01:24:46.995Z,99.99
2023-02-22T01:25:46.173Z,99.99
2023-02-22T01:26:47.695Z,99.99
2023-02-22T01:27:47.475Z,99.99
2023-02-22T01:28:46.331Z,99.99
2023-02-22T01:30:07.133Z,99.99
2023-02-22T01:30:47.460Z,99.99
2023-02-22T01:31:46.223Z,99.99
2023-02-22T01:32:47.398Z,99.99
2023-02-22T01:33:46.291Z,99.99
2023-02-22T01:34:46.980Z,99.99
2023-02-22T01:35:46.527Z,99.99
2023-02-22T01:36:46.226Z,99.99
2023-02-22T01:37:46.058Z,99.99
2023-02-22T01:38:46.363Z,99.99
2023-02-22T01:40:08.005Z,99.99
2023-02-22T01:40:45.879Z,99.99
2023-02-22T01:41:46.499Z,99.99
2023-02-22T01:42:45.972Z,99.99
2023-02-22T01:43:46.283Z,99.99
2023-02-22T01:44:46.076Z,99.99
2023-02-22T01:45:45.948Z,99.99
2023-02-22T01:46:47.603Z,99.99
2023-02-22T01:47:46.495Z,99.99
2023-02-22T01:48:47.182Z,99.99
2023-02-22T01:50:08.010Z,99.99
2023-02-22T01:50:47.249Z,99.99
2023-02-22T01:51:46.269Z,99.99
2023-02-22T01:52:45.975Z,99.99
2023-02-22T01:53:46.507Z,99.99
2023-02-22T01:54:46.026Z,99.99
2023-02-22T01:55:45.893Z,99.99
2023-02-22T01:56:48.063Z,99.99
2023-02-22T01:57:45.941Z,99.99
2023-02-22T01:58:45.705Z,99.99
2023-02-22T02:00:06.936Z,99.99
2023-02-22T02:00:45.797Z,99.99
2023-02-22T02:01:45.593Z,99.99
2023-02-22T02:02:45.854Z,99.99
2023-02-22T02:03:45.769Z,99.99
2023-02-22T02:04:46.009Z,99.99
2023-02-22T02:05:46.507Z,99.99
2023-02-22T02:06:46.487Z,99.99
2023-02-22T02:07:45.868Z,99.99
2023-02-22T02:08:47.040Z,99.99
2023-02-22T02:10:06.841Z,99.99
2023-02-22T02:10:45.725Z,99.99
2023-02-22T02:11:46.511Z,99.99
2023-02-22T02:12:47.161Z,99.99
2023-02-22T02:13:45.544Z,99.99
2023-02-22T02:14:45.909Z,99.99
2023-02-22T02:15:45.637Z,99.99
2023-02-22T02:16:45.962Z,99.99
2023-02-22T02:17:46.514Z,99.99
2023-02-22T02:18:46.920Z,99.99
2023-02-22T02:20:06.722Z,99.99
2023-02-22T02:20:46.987Z,99.99
2023-02-22T02:21:45.898Z,99.99
2023-02-22T02:22:46.535Z,99.99
2023-02-22T02:23:45.511Z,99.99
2023-02-22T02:24:45.804Z,99.99
2023-02-22T02:25:45.731Z,99.99
2023-02-22T02:26:45.416Z,99.99
2023-02-22T02:27:45.701Z,99.99
2023-02-22T02:28:46.034Z,99.99
2023-02-22T02:30:06.710Z,99.99
2023-02-22T02:30:46.924Z,99.99
2023-02-22T02:31:45.416Z,99.99
2023-02-22T02:32:45.678Z,99.99
2023-02-22T02:33:45.392Z,99.99
2023-02-22T02:34:46.024Z,99.99
2023-02-22T02:35:45.496Z,99.99
2023-02-22T02:36:46.663Z,99.99
2023-02-22T02:37:45.576Z,99.99
2023-02-22T02:38:45.471Z,99.99
2023-02-22T02:40:06.601Z,99.99
2023-02-22T02:40:46.845Z,99.99
2023-02-22T02:41:46.635Z,99.99
2023-02-22T02:42:45.505Z,99.99
2023-02-22T02:43:45.344Z,99.99
2023-02-22T02:44:46.996Z,99.99
2023-02-22T02:45:46.036Z,99.99
2023-02-22T02:46:45.172Z,99.99
2023-02-22T02:47:46.106Z,99.99
2023-02-22T02:48:45.210Z,99.99
2023-02-22T02:50:06.473Z,99.99
2023-02-22T02:50:45.317Z,99.99
2023-02-22T02:51:46.038Z,99.99
2023-02-22T02:52:45.401Z,99.99
2023-02-22T02:53:45.252Z,99.99
2023-02-22T02:54:45.469Z,99.99
2023-02-22T02:55:46.648Z,99.99
2023-02-22T02:56:45.485Z,99.99
2023-02-22T02:57:46.044Z,99.99
2023-02-22T02:58:45.080Z,99.99
2023-02-22T03:00:06.360Z,99.99
2023-02-22T03:00:46.600Z,99.99
2023-02-22T03:01:46.182Z,99.99
2023-02-22T03:02:45.293Z,99.99
2023-02-22T03:03:45.100Z,99.99
2023-02-22T03:04:46.780Z,99.99
2023-02-22T03:05:45.150Z,99.99
2023-02-22T03:06:44.959Z,99.99
2023-02-22T03:07:45.343Z,99.99
2023-02-22T03:08:45.076Z,99.99
2023-02-22T03:10:06.053Z,99.99
2023-02-22T03:10:46.523Z,99.99
2023-02-22T03:11:44.887Z,99.99
2023-02-22T03:12:45.172Z,99.99
2023-02-22T03:13:46.382Z,99.99
2023-02-22T03:14:46.632Z,99.99
2023-02-22T03:15:45.543Z,99.99
2023-02-22T03:16:46.702Z,99.99
2023-02-22T03:17:45.070Z,99.99
2023-02-22T03:18:45.525Z,99.99
2023-02-22T03:20:06.584Z,99.99
2023-02-22T03:20:44.911Z,99.99
2023-02-22T03:21:45.545Z,99.99
2023-02-22T03:22:45.027Z,99.99
2023-02-22T03:23:44.796Z,99.99
2023-02-22T03:24:45.079Z,99.99
2023-02-22T03:25:44.919Z,99.99
2023-02-22T03:26:45.218Z,99.99
2023-02-22T03:27:45.563Z,99.99
2023-02-22T03:28:44.806Z,99.99
2023-02-22T03:30:06.634Z,99.99
2023-02-22T03:30:46.381Z,99.99
2023-02-22T03:31:46.578Z,99.99
2023-02-22T03:32:46.378Z,99.99
2023-02-22T03:33:45.568Z,99.99
2023-02-22T03:34:45.048Z,99.99
2023-02-22T03:35:44.811Z,99.99
2023-02-22T03:36:45.787Z,99.99
2023-02-22T03:37:44.952Z,99.99
2023-02-22T03:38:44.704Z,99.99
2023-02-22T03:40:05.579Z,99.99
2023-02-22T03:40:46.239Z,99.99
2023-02-22T03:41:45.131Z,99.99
2023-02-22T03:42:44.910Z,99.99
2023-02-22T03:43:44.766Z,99.99
2023-02-22T03:44:45.001Z,99.99
2023-02-22T03:45:45.568Z,99.99
2023-02-22T03:46:44.558Z,99.99
2023-02-22T03:47:44.833Z,99.99
2023-02-22T03:48:44.641Z,99.99
2023-02-22T03:50:06.382Z,99.99
2023-02-22T03:50:44.733Z,99.99
2023-02-22T03:51:45.577Z,99.99
2023-02-22T03:52:44.794Z,99.99
2023-02-22T03:53:45.977Z,99.99
2023-02-22T03:54:44.882Z,99.99
2023-02-22T03:55:44.700Z,99.99
2023-02-22T03:56:45.387Z,99.99
2023-02-22T03:57:45.585Z,99.99
2023-02-22T03:58:45.964Z,99.99
2023-02-22T04:00:06.323Z,99.99
2023-02-22T04:00:44.850Z,99.99
2023-02-22T04:01:44.468Z,99.99
2023-02-22T04:02:45.685Z,99.99
2023-02-22T04:03:44.565Z,99.99
2023-02-22T04:04:44.910Z,99.99
2023-02-22T04:05:44.638Z,99.99
2023-02-22T04:06:44.390Z,99.99
2023-02-22T04:07:46.080Z,99.99
2023-02-22T04:08:44.387Z,99.99
2023-02-22T04:10:06.128Z,99.99
2023-02-22T04:10:44.400Z,99.99
2023-02-22T04:11:44.726Z,99.99
2023-02-22T04:12:44.455Z,99.99
2023-02-22T04:13:46.136Z,99.99
2023-02-22T04:14:44.476Z,99.99
2023-02-22T04:15:44.758Z,99.99
2023-02-22T04:16:44.492Z,99.99
2023-02-22T04:17:44.255Z,99.99
2023-02-22T04:18:44.528Z,99.99
2023-02-22T04:20:05.105Z,99.99
2023-02-22T04:20:45.991Z,99.99
2023-02-22T04:21:44.332Z,99.99
2023-02-22T04:22:44.621Z,99.99
2023-02-22T04:23:44.293Z,99.99
2023-02-22T04:24:44.561Z,99.99
2023-02-22T04:25:44.280Z,99.99
2023-02-22T04:26:44.562Z,99.99
2023-02-22T04:27:44.347Z,99.99
2023-02-22T04:28:44.568Z,99.99
2023-02-22T04:30:05.871Z,99.99
2023-02-22T04:30:44.105Z,99.99
2023-02-22T04:31:44.382Z,99.99
2023-02-22T04:32:44.092Z,99.99
2023-02-22T04:33:44.346Z,99.99
2023-02-22T04:34:44.087Z,99.99
2023-02-22T04:35:44.349Z,99.99
2023-02-22T04:36:44.113Z,99.99
2023-02-22T04:37:45.088Z,99.99
2023-02-22T04:38:44.103Z,99.99
2023-02-22T04:40:05.822Z,99.99
2023-02-22T04:40:44.128Z,99.99
2023-02-22T04:41:44.355Z,99.99
2023-02-22T04:42:44.126Z,99.99
2023-02-22T04:43:44.375Z,99.99
2023-02-22T04:44:44.120Z,99.99
2023-02-22T04:45:44.365Z,99.99
2023-02-22T04:46:44.129Z,99.99
2023-02-22T04:47:44.399Z,99.99
2023-02-22T04:48:44.103Z,99.99
2023-02-22T04:50:04.504Z,99.99
2023-02-22T04:50:44.175Z,99.99
2023-02-22T04:51:43.912Z,99.99
2023-02-22T04:52:44.167Z,99.99
2023-02-22T04:53:43.919Z,99.99
2023-02-22T04:54:44.180Z,99.99
2023-02-22T04:55:43.905Z,99.99
2023-02-22T04:56:44.146Z,99.99
2023-02-22T04:57:43.879Z,99.99
2023-02-22T04:58:44.166Z,99.99
2023-02-22T05:00:05.436Z,99.99
2023-02-22T05:00:44.219Z,99.99
2023-02-22T05:01:43.948Z,99.99
2023-02-22T05:02:44.218Z,99.99
2023-02-22T05:03:43.937Z,99.99
2023-02-22T05:04:44.206Z,99.99
2023-02-22T05:05:43.930Z,99.99
2023-02-22T05:06:44.208Z,99.99
2023-02-22T05:07:43.924Z,99.99
2023-02-22T05:08:44.186Z,99.99
2023-02-22T05:10:05.409Z,99.99
2023-02-22T05:10:43.704Z,99.99
2023-02-22T05:11:44.045Z,99.99
2023-02-22T05:12:43.702Z,99.99
2023-02-22T05:13:43.943Z,99.99
2023-02-22T05:14:43.787Z,99.99
2023-02-22T05:15:44.055Z,99.99
2023-02-22T05:16:43.711Z,99.99
2023-02-22T05:17:43.960Z,99.99
2023-02-22T05:18:43.727Z,99.99
2023-02-22T05:20:04.625Z,99.99
2023-02-22T05:20:43.810Z,99.99
2023-02-22T05:21:44.075Z,99.99
2023-02-22T05:22:43.826Z,99.99
2023-02-22T05:23:43.551Z,99.99
2023-02-22T05:24:43.808Z,99.99
2023-02-22T05:25:44.039Z,99.99
2023-02-22T05:26:43.824Z,99.99
2023-02-22T05:27:43.514Z,99.99
2023-02-22T05:28:43.795Z,99.99
2023-02-22T05:30:05.064Z,99.99
2023-02-22T05:30:43.957Z,99.99
2023-02-22T05:31:43.731Z,99.99
2023-02-22T05:32:46.112Z,99.99
2023-02-22T05:33:43.602Z,99.99
2023-02-22T05:34:43.850Z,99.99
2023-02-22T05:35:43.583Z,99.99
2023-02-22T05:36:43.857Z,99.99
2023-02-22T05:37:43.604Z,99.99
2023-02-22T05:38:43.865Z,99.99
2023-02-22T05:40:05.084Z,99.99
2023-02-22T05:40:43.399Z,99.99
2023-02-22T05:41:43.621Z,99.99
2023-02-22T05:42:43.873Z,99.99
2023-02-22T05:43:43.606Z,99.99
2023-02-22T05:44:43.361Z,99.99
2023-02-22T05:45:43.602Z,99.99
2023-02-22T05:46:43.357Z,99.99
2023-02-22T05:47:43.606Z,99.99
2023-02-22T05:48:43.367Z,99.99
2023-02-22T05:50:05.076Z,99.99
2023-02-22T05:50:43.398Z,99.99
2023-02-22T05:51:43.634Z,99.99
2023-02-22T05:52:43.420Z,99.99
2023-02-22T05:53:43.643Z,99.99
2023-02-22T05:54:43.377Z,99.99
2023-02-22T05:55:45.630Z,99.99
2023-02-22T05:56:43.394Z,99.99
2023-02-22T05:57:43.635Z,99.99
2023-02-22T05:58:43.375Z,99.99
2023-02-22T06:00:04.164Z,99.99
2023-02-22T06:00:43.416Z,99.99
2023-02-22T06:01:43.160Z,99.99
2023-02-22T06:02:43.454Z,99.99
2023-02-22T06:03:43.163Z,99.99
2023-02-22T06:04:43.430Z,99.99
2023-02-22T06:05:43.217Z,99.99
2023-02-22T06:06:43.401Z,99.99
2023-02-22T06:07:43.139Z,99.99
2023-02-22T06:08:43.430Z,99.99
2023-02-22T06:10:04.115Z,99.99
2023-02-22T06:10:43.446Z,99.99
2023-02-22T06:11:43.182Z,99.99
2023-02-22T06:12:43.408Z,99.99
2023-02-22T06:13:43.164Z,99.99
2023-02-22T06:14:43.410Z,99.99
2023-02-22T06:15:43.160Z,99.99
2023-02-22T06:16:43.418Z,99.99
2023-02-22T06:17:43.155Z,99.99
2023-02-22T06:18:43.415Z,99.99
2023-02-22T06:20:03.180Z,99.99
2023-02-22T06:20:43.429Z,99.99
2023-02-22T06:21:43.161Z,99.99
2023-02-22T06:22:43.411Z,99.99
2023-02-22T06:23:43.155Z,99.99
2023-02-22T06:24:43.376Z,99.99
2023-02-22T06:25:44.801Z,99.99
2023-02-22T06:26:44.151Z,99.99
2023-02-22T06:27:44.430Z,99.99
2023-02-22T06:28:44.782Z,99.99
2023-02-22T06:30:03.070Z,99.99
2023-02-22T06:30:44.925Z,99.99
2023-02-22T06:31:44.754Z,99.99
2023-02-22T06:32:43.187Z,99.99
2023-02-22T06:33:44.362Z,99.99
2023-02-22T06:34:44.657Z,99.99
2023-02-22T06:35:43.658Z,99.99
2023-02-22T06:36:44.747Z,99.99
2023-02-22T06:37:44.535Z,99.99
2023-02-22T06:38:44.434Z,99.99
2023-02-22T06:40:05.655Z,99.99
2023-02-22T06:40:44.471Z,99.99
2023-02-22T06:41:43.662Z,99.99
2023-02-22T06:42:44.577Z,99.99
2023-02-22T06:43:44.349Z,99.99
2023-02-22T06:44:44.692Z,99.99
2023-02-22T06:45:44.590Z,99.99
2023-02-22T06:46:42.852Z,99.99
2023-02-22T06:47:43.093Z,99.99
2023-02-22T06:48:42.849Z,99.99
2023-02-22T06:50:03.120Z,99.99
2023-02-22T06:50:42.855Z,99.99
2023-02-22T06:51:43.088Z,99.99
2023-02-22T06:52:42.831Z,99.99
2023-02-22T06:53:43.088Z,99.99
2023-02-22T06:54:42.829Z,99.99
2023-02-22T06:55:43.098Z,99.99
2023-02-22T06:56:42.815Z,99.99
2023-02-22T06:57:43.065Z,99.99
2023-02-22T06:58:42.820Z,99.99
2023-02-22T07:00:03.081Z,99.99
2023-02-22T07:00:42.894Z,99.99
2023-02-22T07:01:42.579Z,99.99
2023-02-22T07:02:42.879Z,99.99
2023-02-22T07:03:42.617Z,99.99
2023-02-22T07:04:43.653Z,99.99
2023-02-22T07:05:42.599Z,99.99
2023-02-22T07:06:42.875Z,99.99
2023-02-22T07:07:42.641Z,99.99
2023-02-22T07:08:43.572Z,99.99
2023-02-22T07:10:03.510Z,99.99
2023-02-22T07:10:42.016Z,99.99
2023-02-22T07:11:41.997Z,99.99
2023-02-22T07:12:41.977Z,99.99
2023-02-22T07:13:41.959Z,99.99
2023-02-22T07:14:41.957Z,99.99
2023-02-22T07:15:41.978Z,99.99
2023-02-22T07:16:42.002Z,99.99
2023-02-22T07:17:41.983Z,99.99
2023-02-22T07:18:41.945Z,99.99
2023-02-22T07:20:02.008Z,99.99
2023-02-22T07:20:41.894Z,99.99
2023-02-22T07:21:41.880Z,99.99
2023-02-22T07:22:41.883Z,99.99
2023-02-22T07:23:41.885Z,99.99
2023-02-22T07:24:42.680Z,99.99
2023-02-22T07:25:42.424Z,99.99
2023-02-22T07:26:44.200Z,99.99
2023-02-22T07:27:42.515Z,99.99
2023-02-22T07:28:42.757Z,99.99
2023-02-22T07:30:04.033Z,99.99
2023-02-22T07:30:42.419Z,99.99
2023-02-22T07:31:42.596Z,99.99
2023-02-22T07:32:42.432Z,99.99
2023-02-22T07:33:42.620Z,99.99
2023-02-22T07:34:42.384Z,99.99
2023-02-22T07:35:42.630Z,99.99
2023-02-22T07:36:42.404Z,99.99
2023-02-22T07:37:42.613Z,99.99
2023-02-22T07:38:42.381Z,99.99
2023-02-22T07:40:03.210Z,99.99
2023-02-22T07:40:42.426Z,99.99
2023-02-22T07:41:42.665Z,99.99
2023-02-22T07:42:42.407Z,99.99
2023-02-22T07:43:42.639Z,99.99
2023-02-22T07:44:42.410Z,99.99
2023-02-22T07:45:42.643Z,99.99
2023-02-22T07:46:42.382Z,99.99
2023-02-22T07:47:42.116Z,99.99
2023-02-22T07:48:42.390Z,99.99
2023-02-22T07:50:04.095Z,99.99
2023-02-22T07:50:42.424Z,99.99
2023-02-22T07:51:42.159Z,99.99
2023-02-22T07:52:42.418Z,99.99
2023-02-22T07:53:42.180Z,99.99
2023-02-22T07:54:42.426Z,99.99
2023-02-22T07:55:42.142Z,99.99
2023-02-22T07:56:42.394Z,99.99
2023-02-22T07:57:42.152Z,99.99
2023-02-22T07:58:42.425Z,99.99
2023-02-22T08:00:03.637Z,99.99
2023-02-22T08:00:42.440Z,99.99
2023-02-22T08:01:42.202Z,99.99
2023-02-22T08:02:42.500Z,99.99
2023-02-22T08:03:42.210Z,99.99
2023-02-22T08:04:42.445Z,99.99
2023-02-22T08:05:42.191Z,99.99
2023-02-22T08:06:42.437Z,99.99
2023-02-22T08:07:42.215Z,99.99
2023-02-22T08:08:41.445Z,99.99
2023-02-22T08:10:02.727Z,99.99
2023-02-22T08:10:42.006Z,99.99
2023-02-22T08:11:42.260Z,99.99
2023-02-22T08:12:41.990Z,99.99
2023-02-22T08:13:42.268Z,99.99
2023-02-22T08:14:42.022Z,99.99
2023-02-22T08:15:42.261Z,99.99
2023-02-22T08:16:42.076Z,99.99
2023-02-22T08:17:42.257Z,99.99
2023-02-22T08:18:42.011Z,99.99
2023-02-22T08:20:03.923Z,99.99
2023-02-22T08:20:42.189Z,99.99
2023-02-22T08:21:41.959Z,99.99
2023-02-22T08:22:42.207Z,99.99
2023-02-22T08:23:41.960Z,99.99
2023-02-22T08:24:42.195Z,99.99
2023-02-22T08:25:41.981Z,99.99
2023-02-22T08:26:42.208Z,99.99
2023-02-22T08:27:41.988Z,99.99
2023-02-22T08:28:41.704Z,99.99
2023-02-22T08:30:03.464Z,99.99
2023-02-22T08:30:41.801Z,99.99
2023-02-22T08:31:42.033Z,99.99
2023-02-22T08:32:41.872Z,99.99
2023-02-22T08:33:42.010Z,99.99
2023-02-22T08:34:41.765Z,99.99
2023-02-22T08:35:42.027Z,99.95
2023-02-22T08:36:41.771Z,99.64
2023-02-22T08:37:42.022Z,99.64
2023-02-22T08:38:41.745Z,99.18
2023-02-22T08:40:03.510Z,98.46
2023-02-22T08:40:41.810Z,98.15
2023-02-22T08:41:42.051Z,97.95
2023-02-22T08:42:41.798Z,97.53
2023-02-22T08:43:42.066Z,97.28
2023-02-22T08:44:41.112Z,96.30
2023-02-22T08:45:41.121Z,96.46
2023-02-22T08:46:41.053Z,96.56
2023-02-22T08:47:41.068Z,96.31
2023-02-22T08:48:41.016Z,95.24
2023-02-22T08:50:01.108Z,93.76
2023-02-22T08:50:40.994Z,93.65
2023-02-22T08:51:41.016Z,92.99
2023-02-22T08:52:41.743Z,92.58
2023-02-22T08:53:40.985Z,92.23
2023-02-22T08:54:40.960Z,91.78
2023-02-22T08:55:41.729Z,91.02
2023-02-22T08:56:41.474Z,90.16
2023-02-22T08:57:41.767Z,89.81
2023-02-22T08:58:41.495Z,88.23
2023-02-22T09:00:02.854Z,87.61
2023-02-22T09:00:41.631Z,87.57
2023-02-22T09:01:42.840Z,86.65
2023-02-22T09:02:41.642Z,85.36
2023-02-22T09:03:41.397Z,85.46
2023-02-22T09:04:41.614Z,85.36
2023-02-22T09:05:41.416Z,85.87
2023-02-22T09:06:41.617Z,85.66
2023-02-22T09:07:41.388Z,85.56
2023-02-22T09:08:41.655Z,85.72
2023-02-22T09:10:01.506Z,84.56
2023-02-22T09:10:41.671Z,83.64
2023-02-22T09:11:41.429Z,83.13
2023-02-22T09:12:41.676Z,83.50
2023-02-22T09:13:41.439Z,83.15
2023-02-22T09:14:41.704Z,82.89
2023-02-22T09:15:41.456Z,82.13
2023-02-22T09:16:41.726Z,81.82
2023-02-22T09:17:41.464Z,81.95
2023-02-22T09:18:44.215Z,81.71
2023-02-22T09:20:01.466Z,80.18
2023-02-22T09:20:41.187Z,78.88
2023-02-22T09:21:41.463Z,78.99
2023-02-22T09:22:42.137Z,79.91
2023-02-22T09:23:41.457Z,79.66
2023-02-22T09:24:41.188Z,79.87
2023-02-22T09:25:41.505Z,80.07
2023-02-22T09:26:41.202Z,79.63
2023-02-22T09:27:41.463Z,79.18
2023-02-22T09:28:41.204Z,78.84
2023-02-22T09:30:01.479Z,77.21
2023-02-22T09:30:41.234Z,77.21
2023-02-22T09:31:41.753Z,76.46
2023-02-22T09:32:41.387Z,76.42
2023-02-22T09:33:41.474Z,75.98
2023-02-22T09:34:41.226Z,74.52
2023-02-22T09:35:41.496Z,73.80
2023-02-22T09:36:41.267Z,73.60
2023-02-22T09:37:41.517Z,73.10
2023-02-22T09:38:41.237Z,74.21
2023-02-22T09:40:01.588Z,74.04
2023-02-22T09:40:41.254Z,74.72
2023-02-22T09:41:41.032Z,73.84
2023-02-22T09:42:41.272Z,74.62
2023-02-22T09:43:41.024Z,74.52
2023-02-22T09:44:41.281Z,73.47
2023-02-22T09:45:41.153Z,73.47
2023-02-22T09:46:41.290Z,73.36
2023-02-22T09:47:42.551Z,73.74
2023-02-22T09:48:42.859Z,72.21
2023-02-22T09:50:01.198Z,71.87
2023-02-22T09:50:42.375Z,72.17
2023-02-22T09:51:42.749Z,72.38
2023-02-22T09:52:42.506Z,71.19
2023-02-22T09:53:42.807Z,71.80
2023-02-22T09:54:41.183Z,72.11
2023-02-22T09:55:41.104Z,72.92
2023-02-22T09:56:42.773Z,72.55
2023-02-22T09:57:42.578Z,70.99
2023-02-22T09:58:42.361Z,69.74
2023-02-22T10:00:01.221Z,69.23
2023-02-22T10:00:42.422Z,69.71
2023-02-22T10:01:41.776Z,69.00
2023-02-22T10:02:42.500Z,68.35
2023-02-22T10:03:41.569Z,67.75
2023-02-22T10:04:42.205Z,67.95
2023-02-22T10:05:42.601Z,68.96
2023-02-22T10:06:42.285Z,68.23
2023-02-22T10:07:41.760Z,66.67
2023-02-22T10:08:42.357Z,66.30
2023-02-22T10:10:01.184Z,67.44
2023-02-22T10:10:42.533Z,67.75
2023-02-22T10:11:42.280Z,68.05
2023-02-22T10:12:42.589Z,68.83
2023-02-22T10:13:42.392Z,67.92
2023-02-22T10:14:43.558Z,67.38
2023-02-22T10:15:42.441Z,67.89
2023-02-22T10:16:42.319Z,66.77
2023-02-22T10:17:43.454Z,66.91
2023-02-22T10:18:41.567Z,67.65
2023-02-22T10:20:01.166Z,66.80
2023-02-22T10:20:42.390Z,67.31
2023-02-22T10:21:42.168Z,67.68
2023-02-22T10:22:41.603Z,68.19
2023-02-22T10:23:41.498Z,67.05
2023-02-22T10:24:41.026Z,66.94
2023-02-22T10:25:41.281Z,66.00
2023-02-22T10:26:41.997Z,65.59
2023-02-22T10:27:42.255Z,64.48
2023-02-22T10:28:42.069Z,63.98
2023-02-22T10:30:01.766Z,64.07
2023-02-22T10:30:42.138Z,64.89
2023-02-22T10:31:41.347Z,63.78
2023-02-22T10:32:41.523Z,65.70
2023-02-22T10:33:42.047Z,64.79
2023-02-22T10:34:40.926Z,65.47
2023-02-22T10:35:42.112Z,65.36
2023-02-22T10:36:41.880Z,64.52
2023-02-22T10:37:41.358Z,64.29
2023-02-22T10:38:42.070Z,63.65
2023-02-22T10:40:00.899Z,62.44
2023-02-22T10:40:42.169Z,61.53
2023-02-22T10:41:42.023Z,62.64
2023-02-22T10:42:41.312Z,63.12
2023-02-22T10:43:41.284Z,62.59
2023-02-22T10:44:40.511Z,61.85
2023-02-22T10:45:42.316Z,60.33
2023-02-22T10:46:41.548Z,60.16
2023-02-22T10:47:41.074Z,60.84
2023-02-22T10:48:41.301Z,60.36
2023-02-22T10:50:00.545Z,61.91
2023-02-22T10:50:42.270Z,62.71
2023-02-22T10:51:41.597Z,63.02
2023-02-22T10:52:41.875Z,63.42
2023-02-22T10:53:42.214Z,60.82
2023-02-22T10:54:40.982Z,62.07
2023-02-22T10:55:41.828Z,63.48
2023-02-22T10:56:42.090Z,62.98
2023-02-22T10:57:41.159Z,63.68
2023-02-22T10:58:41.794Z,63.35
2023-02-22T11:00:00.628Z,62.24
2023-02-22T11:00:41.845Z,61.51
2023-02-22T11:01:41.343Z,62.11
2023-02-22T11:02:41.900Z,63.29
2023-02-22T11:03:41.700Z,61.51
2023-02-22T11:04:41.062Z,61.40
2023-02-22T11:05:41.818Z,63.22
2023-02-22T11:06:41.602Z,62.48
2023-02-22T11:07:40.810Z,61.85
2023-02-22T11:08:41.690Z,61.01
2023-02-22T11:10:00.529Z,60.10
2023-02-22T11:10:41.719Z,59.30
2023-02-22T11:11:42.023Z,60.31
2023-02-22T11:12:41.853Z,60.64
2023-02-22T11:13:41.738Z,60.94
2023-02-22T11:14:40.845Z,60.57
2023-02-22T11:15:40.985Z,60.72
2023-02-22T11:16:41.560Z,61.66
2023-02-22T11:17:41.821Z,63.10
2023-02-22T11:18:41.623Z,64.93
2023-02-22T11:20:00.459Z,65.36
2023-02-22T11:20:41.695Z,66.00
2023-02-22T11:21:41.480Z,65.80
2023-02-22T11:22:41.804Z,66.54
2023-02-22T11:23:44.342Z,67.25
2023-02-22T11:24:49.053Z,67.08
2023-02-22T11:25:41.827Z,67.82
2023-02-22T11:26:41.019Z,68.87
2023-02-22T11:27:40.359Z,69.07
2023-02-22T11:28:40.098Z,68.46
2023-02-22T11:30:02.627Z,70.21
2023-02-22T11:30:40.213Z,70.72
2023-02-22T11:31:40.520Z,67.68
2023-02-22T11:32:40.116Z,69.00
2023-02-22T11:33:39.910Z,69.51
2023-02-22T11:34:40.144Z,69.81
2023-02-22T11:35:39.925Z,70.48
2023-02-22T11:36:40.171Z,70.08
2023-02-22T11:37:39.928Z,69.57
2023-02-22T11:38:40.176Z,70.39
2023-02-22T11:40:01.459Z,70.08
2023-02-22T11:40:40.271Z,69.88
2023-02-22T11:41:40.012Z,69.68
2023-02-22T11:42:39.774Z,69.64
2023-02-22T11:43:40.020Z,68.52
2023-02-22T11:44:39.766Z,67.51
2023-02-22T11:45:44.259Z,68.23
2023-02-22T11:46:40.805Z,67.92
2023-02-22T11:47:40.070Z,68.02
2023-02-22T11:48:39.834Z,67.61
2023-02-22T11:50:00.831Z,66.91
2023-02-22T11:50:39.833Z,67.11
2023-02-22T11:51:40.096Z,68.02
2023-02-22T11:52:39.857Z,67.28
2023-02-22T11:53:40.134Z,67.18
2023-02-22T11:54:39.931Z,67.18
2023-02-22T11:55:43.045Z,68.29
2023-02-22T11:56:40.565Z,65.25
2023-02-22T11:57:39.681Z,66.57
2023-02-22T11:58:39.947Z,66.88
2023-02-22T12:00:01.262Z,67.05
2023-02-22T12:00:40.007Z,67.05
2023-02-22T12:01:39.761Z,66.97
2023-02-22T12:02:41.685Z,67.55
2023-02-22T12:03:40.891Z,66.57
2023-02-22T12:04:39.823Z,66.88
2023-02-22T12:05:39.814Z,66.27
2023-02-22T12:06:39.541Z,66.27
2023-02-22T12:07:39.792Z,67.48
2023-02-22T12:08:39.524Z,66.40
2023-02-22T12:10:00.512Z,67.51
2023-02-22T12:10:39.615Z,67.00
2023-02-22T12:11:39.876Z,67.55
2023-02-22T12:12:39.608Z,67.65
2023-02-22T12:13:39.883Z,67.88
2023-02-22T12:14:39.628Z,68.29
2023-02-22T12:15:39.892Z,69.10
2023-02-22T12:16:39.635Z,68.49
2023-02-22T12:17:41.792Z,68.52
2023-02-22T12:18:39.628Z,68.22
2023-02-22T12:20:00.143Z,69.54
2023-02-22T12:20:39.720Z,70.15
2023-02-22T12:21:39.396Z,70.45
2023-02-22T12:22:39.674Z,71.16
2023-02-22T12:23:39.410Z,71.47
2023-02-22T12:24:39.660Z,69.17
2023-02-22T12:25:40.394Z,70.79
2023-02-22T12:26:39.652Z,71.70
2023-02-22T12:27:39.380Z,71.70
2023-02-22T12:28:39.711Z,71.43
2023-02-22T12:30:00.859Z,71.64
2023-02-22T12:30:39.676Z,72.55
2023-02-22T12:31:39.486Z,72.96
2023-02-22T12:32:39.716Z,73.87
2023-02-22T12:33:39.478Z,74.88
2023-02-22T12:34:39.793Z,76.04
2023-02-22T12:35:39.431Z,76.75
2023-02-22T12:36:39.690Z,76.75
2023-02-22T12:37:39.430Z,77.87
2023-02-22T12:38:39.165Z,78.82
2023-02-22T12:40:00.896Z,78.92
2023-02-22T12:40:39.196Z,79.13
2023-02-22T12:41:39.476Z,79.06
2023-02-22T12:42:39.217Z,79.47
2023-02-22T12:43:39.478Z,79.98
2023-02-22T12:44:39.237Z,80.29
2023-02-22T12:45:39.471Z,80.99
2023-02-22T12:46:39.265Z,81.44
2023-02-22T12:47:39.498Z,81.85
2023-02-22T12:48:39.250Z,81.95
2023-02-22T12:50:01.013Z,82.15
2023-02-22T12:50:39.289Z,82.26
2023-02-22T12:51:39.521Z,82.70